Aurora, Indiana
Current Conditions -  °F | °C
As of 5:52 AM on Friday 28 Nov 2014 (Local Time) from KCVG Reporting Station
Overcast Overcast  
Wind Chill: 22°   Ceiling: 3500
Heat Index: 27°   Visibility: 9mi
Dew Point: 18°   Wind: 5mph
Humidity: 69%   Direction: 200°SSW
Pressure: 30.38"   Gusts: NA
Location:  39.06°N, 84.9°W
Report Text: KCVG 281052Z 20004KT 9SM OVC035 M03/M08 A3038 RMK AO2 SNB37E50 SLP294 P0000 T10281078
Loading
Personal Weather Stations






























Interactive Weather Map New forecast layout! Learn more

10-Day Weather Forecast

Advertisements
Track Severe Weather on mobile